Time;durP1;ratioP1;P1;durP2;ratioP2;P2;SDS_P1;SDS_P2;PMS_P1;PMS_P2;Temp;Humidity;BMP_temperature;BMP_pressure;BME280_temperature;BME280_humidity;BME280_pressure;Samples;Min_cycle;Max_cycle;Signal;HPM_P1;HPM_P2
2022/03/02 00:02:02;;;;;;;70.25;41.00;;;;;;;;;;4945501;28;20593;-69
2022/03/02 00:04:29;;;;;;;72.68;43.30;;;;;;;;;;4954282;28;20122;-69
2022/03/02 00:06:57;;;;;;;70.22;42.67;;;;;;;;;;4939595;28;20050;-69
2022/03/02 00:09:24;;;;;;;66.53;43.60;;;;;;;;;;4937158;28;20399;-69
2022/03/02 00:11:51;;;;;;;67.90;42.63;;;;;;;;;;4938577;28;21201;-69
2022/03/02 00:14:18;;;;;;;65.28;42.45;;;;;;;;;;4936699;28;20153;-69
2022/03/02 00:16:45;;;;;;;61.60;39.92;;;;;;;;;;4938872;28;20062;-69
2022/03/02 00:19:14;;;;;;;67.82;41.38;;;;;;;;;;4940644;28;20121;-69
2022/03/02 00:21:41;;;;;;;67.50;41.67;;;;;;;;;;4940451;28;20063;-69
2022/03/02 00:24:08;;;;;;;68.55;43.90;;;;;;;;;;4937769;28;20058;-69
2022/03/02 00:26:36;;;;;;;71.07;42.85;;;;;;;;;;4944572;28;20059;-69
2022/03/02 00:29:05;;;;;;;65.10;40.88;;;;;;;;;;4958221;28;20359;-69
2022/03/02 00:31:32;;;;;;;58.67;37.75;;;;;;;;;;4944702;28;20055;-69
2022/03/02 00:33:59;;;;;;;62.20;40.30;;;;;;;;;;4957289;28;20054;-69
2022/03/02 00:36:28;;;;;;;69.57;40.05;;;;;;;;;;4940835;28;20047;-69
2022/03/02 00:38:55;;;;;;;65.05;38.85;;;;;;;;;;4938486;28;20050;-69
2022/03/02 00:41:22;;;;;;;66.32;39.28;;;;;;;;;;4957629;28;20144;-69
2022/03/02 00:43:50;;;;;;;62.50;39.53;;;;;;;;;;4939361;28;20062;-69
2022/03/02 00:46:17;;;;;;;66.60;38.42;;;;;;;;;;4940476;28;20074;-69
2022/03/02 00:48:45;;;;;;;62.67;38.35;;;;;;;;;;4939065;28;20075;-69
2022/03/02 00:51:12;;;;;;;61.13;37.38;;;;;;;;;;4943041;28;20062;-69
2022/03/02 00:53:41;;;;;;;59.47;37.42;;;;;;;;;;4940659;28;20434;-69
2022/03/02 00:56:09;;;;;;;61.60;38.63;;;;;;;;;;4956663;28;20047;-69
2022/03/02 00:58:36;;;;;;;61.92;39.22;;;;;;;;;;4941489;28;20134;-69
2022/03/02 01:01:03;;;;;;;64.15;38.65;;;;;;;;;;4942328;28;20054;-69
2022/03/02 01:03:31;;;;;;;67.60;39.40;;;;;;;;;;4952506;28;20047;-69
2022/03/02 01:05:58;;;;;;;66.13;40.08;;;;;;;;;;4937596;28;20050;-69
2022/03/02 01:08:25;;;;;;;62.83;37.90;;;;;;;;;;4938500;28;20043;-69
2022/03/02 01:10:54;;;;;;;63.20;38.33;;;;;;;;;;4959644;28;22057;-69
2022/03/02 01:13:21;;;;;;;67.78;39.72;;;;;;;;;;4941934;28;20059;-69
2022/03/02 01:15:48;;;;;;;61.38;38.60;;;;;;;;;;4936580;28;20062;-69
2022/03/02 01:18:16;;;;;;;70.78;41.33;;;;;;;;;;4939976;28;20066;-69
2022/03/02 01:20:43;;;;;;;61.72;38.70;;;;;;;;;;4943558;28;20062;-69
2022/03/02 01:23:11;;;;;;;72.78;40.70;;;;;;;;;;4959338;28;20142;-69
2022/03/02 01:25:38;;;;;;;64.80;38.92;;;;;;;;;;4953057;28;20087;-69
2022/03/02 01:28:07;;;;;;;69.93;40.50;;;;;;;;;;4939442;28;20143;-69
2022/03/02 01:30:34;;;;;;;68.68;40.10;;;;;;;;;;4936812;28;20066;-69
2022/03/02 01:33:02;;;;;;;69.82;39.30;;;;;;;;;;4938520;28;20057;-69
2022/03/02 01:35:29;;;;;;;69.38;40.35;;;;;;;;;;4937751;28;20981;-69
2022/03/02 01:37:56;;;;;;;75.10;42.55;;;;;;;;;;4955911;28;20046;-69
2022/03/02 01:40:24;;;;;;;67.20;39.38;;;;;;;;;;4954145;28;20459;-69
2022/03/02 01:42:51;;;;;;;70.32;38.65;;;;;;;;;;4940845;28;20597;-69
2022/03/02 01:45:21;;;;;;;76.18;41.95;;;;;;;;;;4937518;28;20063;-69
2022/03/02 01:47:52;;;;;;;72.47;40.42;;;;;;;;;;4935478;28;20557;-69
2022/03/02 01:50:23;;;;;;;75.97;42.72;;;;;;;;;;4943301;28;20059;-69
2022/03/02 01:52:55;;;;;;;70.00;39.17;;;;;;;;;;4941552;28;20518;-69
2022/03/02 01:55:26;;;;;;;66.85;38.33;;;;;;;;;;4956196;28;20580;-69
2022/03/02 01:57:59;;;;;;;68.43;38.97;;;;;;;;;;4944922;28;20105;-69
2022/03/02 02:00:29;;;;;;;62.30;37.60;;;;;;;;;;4941127;28;20094;-69
2022/03/02 02:02:57;;;;;;;67.00;37.58;;;;;;;;;;4941287;28;20059;-69
2022/03/02 02:05:24;;;;;;;65.95;38.10;;;;;;;;;;4939539;28;20126;-69
2022/03/02 02:07:51;;;;;;;68.53;39.05;;;;;;;;;;4943020;28;20051;-69
2022/03/02 02:10:19;;;;;;;65.78;37.97;;;;;;;;;;4944511;28;20733;-69
2022/03/02 02:12:46;;;;;;;65.38;38.47;;;;;;;;;;4939026;28;20055;-69
2022/03/02 02:15:14;;;;;;;60.72;37.83;;;;;;;;;;4937271;28;20062;-69
2022/03/02 02:17:42;;;;;;;71.30;40.08;;;;;;;;;;4934972;28;20491;-69
2022/03/02 02:20:11;;;;;;;80.43;42.03;;;;;;;;;;4942172;28;20491;-69
2022/03/02 02:22:40;;;;;;;65.80;39.15;;;;;;;;;;4939853;28;20055;-69
2022/03/02 02:25:08;;;;;;;74.28;40.35;;;;;;;;;;4939407;28;20070;-69
2022/03/02 02:27:36;;;;;;;67.63;38.58;;;;;;;;;;4937153;28;20047;-69
2022/03/02 02:30:04;;;;;;;80.80;42.30;;;;;;;;;;4939846;28;20094;-69
2022/03/02 02:32:31;;;;;;;68.10;40.45;;;;;;;;;;4958398;28;20113;-69
2022/03/02 02:34:59;;;;;;;70.45;40.45;;;;;;;;;;4937288;28;20059;-69
2022/03/02 02:37:26;;;;;;;80.28;42.75;;;;;;;;;;4939144;28;20062;-69
2022/03/02 02:39:58;;;;;;;71.68;42.08;;;;;;;;;;4939080;28;20561;-69
2022/03/02 02:42:26;;;;;;;81.47;43.70;;;;;;;;;;4934555;28;20107;-69
2022/03/02 02:44:53;;;;;;;81.32;45.30;;;;;;;;;;4937504;28;20494;-69
2022/03/02 02:47:20;;;;;;;80.40;43.38;;;;;;;;;;4938963;28;20101;-69
2022/03/02 02:49:48;;;;;;;80.60;43.65;;;;;;;;;;4940211;28;20076;-69
2022/03/02 02:52:15;;;;;;;75.60;42.45;;;;;;;;;;4940659;28;20128;-69
2022/03/02 02:54:42;;;;;;;79.32;42.42;;;;;;;;;;4939026;28;20059;-69
2022/03/02 02:57:11;;;;;;;74.53;41.17;;;;;;;;;;4938307;28;20426;-69
2022/03/02 02:59:38;;;;;;;81.80;43.60;;;;;;;;;;4937753;28;20073;-69
2022/03/02 03:02:06;;;;;;;87.53;44.20;;;;;;;;;;4935489;28;20142;-69
2022/03/02 03:04:33;;;;;;;75.90;40.88;;;;;;;;;;4958551;28;20046;-69
2022/03/02 03:07:00;;;;;;;86.88;44.45;;;;;;;;;;4959905;28;20054;-69
2022/03/02 03:09:27;;;;;;;81.00;41.60;;;;;;;;;;4938167;28;20050;-69
2022/03/02 03:11:55;;;;;;;103.40;46.72;;;;;;;;;;4957840;28;20395;-69
2022/03/02 03:14:23;;;;;;;95.05;46.10;;;;;;;;;;4940586;28;20058;-69
2022/03/02 03:16:50;;;;;;;91.60;44.88;;;;;;;;;;4943529;28;20123;-69
2022/03/02 03:19:18;;;;;;;86.10;43.85;;;;;;;;;;4939357;28;20047;-69
2022/03/02 03:21:45;;;;;;;87.45;43.13;;;;;;;;;;4945496;28;20085;-69
2022/03/02 03:24:12;;;;;;;97.68;46.20;;;;;;;;;;4945524;28;20126;-69
2022/03/02 03:26:39;;;;;;;103.43;47.22;;;;;;;;;;4960655;28;20050;-69
2022/03/02 03:29:06;;;;;;;99.47;46.92;;;;;;;;;;4939869;28;20422;-69
2022/03/02 03:31:38;;;;;;;96.90;44.53;;;;;;;;;;4941605;28;20054;-69
2022/03/02 03:34:05;;;;;;;113.82;48.25;;;;;;;;;;4945721;28;20058;-69
2022/03/02 03:36:32;;;;;;;102.28;46.13;;;;;;;;;;4943476;28;20059;-69
2022/03/02 03:38:59;;;;;;;109.88;47.67;;;;;;;;;;4939963;28;20102;-69
2022/03/02 03:41:27;;;;;;;102.90;44.88;;;;;;;;;;4941308;28;20058;-69
2022/03/02 03:43:54;;;;;;;102.13;45.65;;;;;;;;;;4943324;28;20062;-69
2022/03/02 03:46:21;;;;;;;118.97;49.15;;;;;;;;;;4940861;28;20055;-69
2022/03/02 03:48:50;;;;;;;104.20;46.80;;;;;;;;;;4946745;28;20054;-69
2022/03/02 03:51:17;;;;;;;113.40;46.88;;;;;;;;;;4955788;28;20134;-69
2022/03/02 03:53:44;;;;;;;102.63;45.78;;;;;;;;;;4940219;28;20055;-69
2022/03/02 03:56:12;;;;;;;111.53;45.17;;;;;;;;;;4938591;28;20057;-69
2022/03/02 03:58:39;;;;;;;107.10;46.58;;;;;;;;;;4937995;28;20395;-69
2022/03/02 04:01:07;;;;;;;101.22;45.13;;;;;;;;;;4944768;28;20528;-69
2022/03/02 04:03:35;;;;;;;115.78;48.15;;;;;;;;;;4943534;28;20051;-69
2022/03/02 04:06:04;;;;;;;108.18;46.05;;;;;;;;;;4941431;28;20047;-69
2022/03/02 04:08:31;;;;;;;124.15;50.00;;;;;;;;;;4946397;28;20668;-69
2022/03/02 04:11:00;;;;;;;111.35;46.75;;;;;;;;;;4941345;28;20066;-69
2022/03/02 04:13:27;;;;;;;127.57;49.85;;;;;;;;;;4937319;28;20062;-69
2022/03/02 04:15:54;;;;;;;111.53;47.08;;;;;;;;;;4943674;28;20065;-69
2022/03/02 04:18:21;;;;;;;115.50;45.50;;;;;;;;;;4941154;28;20050;-69
2022/03/02 04:20:49;;;;;;;108.53;45.92;;;;;;;;;;4942029;28;20055;-69
2022/03/02 04:23:17;;;;;;;113.03;47.15;;;;;;;;;;4940320;28;20051;-69
2022/03/02 04:25:45;;;;;;;104.65;45.75;;;;;;;;;;4944898;28;20062;-69
2022/03/02 04:28:12;;;;;;;120.55;49.13;;;;;;;;;;4946654;28;20513;-69
2022/03/02 04:30:39;;;;;;;122.55;47.78;;;;;;;;;;4944437;28;20046;-69
2022/03/02 04:33:06;;;;;;;118.47;47.17;;;;;;;;;;4942580;28;20061;-69
2022/03/02 04:35:34;;;;;;;113.00;45.13;;;;;;;;;;4958286;28;20051;-69
2022/03/02 04:38:01;;;;;;;117.70;47.47;;;;;;;;;;4958789;28;20062;-69
2022/03/02 04:40:30;;;;;;;152.88;51.50;;;;;;;;;;4941725;28;20053;-69
2022/03/02 04:42:58;;;;;;;124.47;48.47;;;;;;;;;;4940835;28;20055;-69
2022/03/02 04:45:27;;;;;;;115.43;47.13;;;;;;;;;;4939401;28;20116;-69
2022/03/02 04:47:55;;;;;;;120.05;47.15;;;;;;;;;;4943806;28;20149;-69
2022/03/02 04:50:23;;;;;;;124.05;48.53;;;;;;;;;;4941695;28;20049;-69
2022/03/02 04:52:50;;;;;;;124.90;48.90;;;;;;;;;;4942975;28;20047;-69
2022/03/02 04:55:18;;;;;;;106.55;45.58;;;;;;;;;;4943333;28;20047;-69
2022/03/02 04:57:47;;;;;;;134.88;48.67;;;;;;;;;;4937593;28;20058;-69
2022/03/02 05:00:16;;;;;;;128.52;48.63;;;;;;;;;;4939268;28;20054;-69
2022/03/02 05:02:44;;;;;;;115.75;46.33;;;;;;;;;;4936620;28;20058;-69
2022/03/02 05:05:12;;;;;;;115.07;47.85;;;;;;;;;;4954844;28;20050;-69
2022/03/02 05:07:39;;;;;;;154.00;51.38;;;;;;;;;;4943650;28;20043;-69
2022/03/02 05:10:07;;;;;;;133.45;49.45;;;;;;;;;;4941842;28;20051;-69
2022/03/02 05:12:35;;;;;;;146.63;50.78;;;;;;;;;;4942814;28;20054;-68
2022/03/02 05:15:04;;;;;;;109.97;47.35;;;;;;;;;;4941528;28;20047;-68
2022/03/02 05:17:31;;;;;;;129.55;50.22;;;;;;;;;;4961747;28;20077;-68
2022/03/02 05:19:59;;;;;;;149.43;49.60;;;;;;;;;;4938883;28;20460;-68
2022/03/02 05:22:26;;;;;;;104.10;45.40;;;;;;;;;;4944662;28;20719;-68
2022/03/02 05:24:53;;;;;;;145.30;50.13;;;;;;;;;;4943151;28;20074;-68
2022/03/02 05:27:21;;;;;;;103.07;45.40;;;;;;;;;;4940380;28;20456;-68
2022/03/02 05:29:48;;;;;;;160.05;53.65;;;;;;;;;;4945673;28;20360;-68
2022/03/02 05:32:16;;;;;;;151.13;51.88;;;;;;;;;;4948627;28;20473;-68
2022/03/02 05:34:43;;;;;;;105.40;47.35;;;;;;;;;;4960187;28;22041;-68
2022/03/02 05:37:11;;;;;;;140.75;51.22;;;;;;;;;;4942627;28;20065;-68
2022/03/02 05:39:38;;;;;;;118.13;50.00;;;;;;;;;;4957556;28;20047;-68
2022/03/02 05:42:06;;;;;;;94.18;46.20;;;;;;;;;;4943350;28;20059;-68
2022/03/02 05:44:33;;;;;;;89.60;42.80;;;;;;;;;;4939489;28;20414;-68
2022/03/02 05:47:00;;;;;;;146.02;52.88;;;;;;;;;;4935798;28;20102;-68
2022/03/02 05:49:29;;;;;;;117.00;49.97;;;;;;;;;;4942417;28;20066;-68
2022/03/02 05:51:56;;;;;;;137.98;51.10;;;;;;;;;;4935366;28;20051;-68
2022/03/02 05:54:24;;;;;;;112.93;49.55;;;;;;;;;;4935219;28;20058;-68
2022/03/02 05:56:51;;;;;;;107.10;46.83;;;;;;;;;;4941653;28;20055;-68
2022/03/02 05:59:18;;;;;;;110.13;49.72;;;;;;;;;;4934358;28;20809;-68
2022/03/02 06:01:46;;;;;;;103.65;47.85;;;;;;;;;;4932801;28;20403;-68
2022/03/02 06:04:13;;;;;;;129.40;52.00;;;;;;;;;;4950891;28;20051;-68
2022/03/02 06:06:42;;;;;;;85.65;43.92;;;;;;;;;;4942970;28;20062;-68
2022/03/02 06:09:11;;;;;;;86.00;43.70;;;;;;;;;;4959880;28;20055;-68
2022/03/02 06:11:39;;;;;;;85.88;44.15;;;;;;;;;;4936216;28;20046;-68
2022/03/02 06:14:07;;;;;;;111.70;48.67;;;;;;;;;;4946356;28;20462;-68
2022/03/02 06:16:34;;;;;;;95.22;45.88;;;;;;;;;;4941604;28;20062;-68
2022/03/02 06:19:02;;;;;;;98.00;47.72;;;;;;;;;;4939278;28;20051;-68
2022/03/02 06:21:30;;;;;;;97.70;47.55;;;;;;;;;;4946573;28;20105;-68
2022/03/02 06:23:59;;;;;;;101.80;50.33;;;;;;;;;;4958681;28;20105;-68
2022/03/02 06:26:26;;;;;;;90.15;45.95;;;;;;;;;;4960154;28;20446;-68
2022/03/02 06:28:54;;;;;;;94.40;48.60;;;;;;;;;;4959783;28;20406;-68
2022/03/02 06:31:21;;;;;;;99.70;47.95;;;;;;;;;;4943428;28;20069;-68
2022/03/02 06:33:49;;;;;;;83.15;43.85;;;;;;;;;;4941551;28;20063;-68
2022/03/02 06:36:18;;;;;;;94.97;46.45;;;;;;;;;;4944242;28;20149;-68
2022/03/02 06:38:45;;;;;;;88.85;43.85;;;;;;;;;;4936924;28;20147;-68
2022/03/02 06:41:16;;;;;;;95.00;45.22;;;;;;;;;;4938291;28;20047;-68
2022/03/02 06:43:48;;;;;;;87.07;46.28;;;;;;;;;;4953890;28;20058;-68
2022/03/02 06:46:20;;;;;;;94.25;46.47;;;;;;;;;;4950798;28;20155;-68
2022/03/02 06:48:51;;;;;;;83.43;44.67;;;;;;;;;;4936550;28;20047;-68
2022/03/02 06:51:21;;;;;;;85.20;43.70;;;;;;;;;;4941048;28;20090;-68
2022/03/02 06:53:49;;;;;;;89.55;44.22;;;;;;;;;;4957201;28;20493;-68
2022/03/02 06:56:19;;;;;;;87.45;44.60;;;;;;;;;;4953575;28;20055;-68
2022/03/02 06:58:50;;;;;;;90.05;46.35;;;;;;;;;;4947555;28;20105;-68
2022/03/02 07:01:23;;;;;;;87.57;44.63;;;;;;;;;;4954595;28;20054;-68
2022/03/02 07:03:50;;;;;;;;;;;;;;;;;;4933108;28;20122;-68
2022/03/02 07:06:18;;;;;;;86.07;44.20;;;;;;;;;;4958024;28;19926;-68
2022/03/02 07:08:48;;;;;;;94.60;47.47;;;;;;;;;;4937838;28;20069;-68
2022/03/02 07:11:16;;;;;;;87.80;45.65;;;;;;;;;;4936485;28;20051;-68
2022/03/02 07:13:45;;;;;;;92.30;45.70;;;;;;;;;;4939308;28;20478;-68
2022/03/02 07:16:12;;;;;;;83.03;43.75;;;;;;;;;;4956936;28;20129;-68
2022/03/02 07:18:39;;;;;;;88.72;45.28;;;;;;;;;;4958881;28;20101;-68
2022/03/02 07:21:09;;;;;;;94.10;48.67;;;;;;;;;;4939241;28;20058;-68
2022/03/02 07:23:39;;;;;;;94.07;46.78;;;;;;;;;;4942509;28;20051;-68
2022/03/02 07:26:06;;;;;;;85.88;45.22;;;;;;;;;;4941833;28;20058;-68
2022/03/02 07:28:35;;;;;;;86.60;46.63;;;;;;;;;;4936387;28;20051;-68
2022/03/02 07:31:04;;;;;;;82.68;44.30;;;;;;;;;;4935953;28;20105;-68
2022/03/02 07:33:32;;;;;;;86.45;44.63;;;;;;;;;;4937510;28;20055;-68
2022/03/02 07:36:00;;;;;;;90.93;48.35;;;;;;;;;;4935788;28;20054;-68
2022/03/02 07:38:27;;;;;;;88.78;47.63;;;;;;;;;;4937328;28;20066;-68
2022/03/02 07:40:55;;;;;;;80.90;43.63;;;;;;;;;;4938554;28;20051;-68
2022/03/02 07:43:22;;;;;;;89.63;46.55;;;;;;;;;;4937572;28;20070;-68
2022/03/02 07:45:50;;;;;;;89.75;46.78;;;;;;;;;;4935904;28;20058;-68
2022/03/02 07:48:18;;;;;;;87.13;45.03;;;;;;;;;;4956011;28;20494;-68
2022/03/02 07:50:49;;;;;;;81.68;44.63;;;;;;;;;;4958419;28;20054;-68
2022/03/02 07:53:17;;;;;;;78.25;42.25;;;;;;;;;;4943866;28;20666;-68
2022/03/02 07:55:46;;;;;;;75.72;43.03;;;;;;;;;;4946082;28;20065;-68
2022/03/02 07:58:13;;;;;;;85.63;45.95;;;;;;;;;;4942965;28;20055;-68
2022/03/02 08:00:40;;;;;;;87.15;46.08;;;;;;;;;;4939799;28;20124;-68
2022/03/02 08:03:07;;;;;;;74.47;41.90;;;;;;;;;;4941432;28;20488;-68
2022/03/02 08:05:36;;;;;;;71.70;40.70;;;;;;;;;;4937136;28;20057;-68
2022/03/02 08:08:03;;;;;;;78.07;42.70;;;;;;;;;;4935989;28;20117;-68
2022/03/02 08:10:30;;;;;;;79.72;41.03;;;;;;;;;;4934648;28;20137;-68
2022/03/02 08:12:58;;;;;;;69.13;41.47;;;;;;;;;;4958476;28;20055;-68
2022/03/02 08:15:26;;;;;;;73.25;40.83;;;;;;;;;;4944950;28;20092;-68
2022/03/02 08:17:53;;;;;;;72.88;41.90;;;;;;;;;;4938543;28;20051;-68
2022/03/02 08:20:20;;;;;;;69.65;39.50;;;;;;;;;;4958506;28;20047;-68
2022/03/02 08:22:51;;;;;;;64.72;38.05;;;;;;;;;;4959746;28;20697;-68
2022/03/02 08:25:22;;;;;;;72.65;41.80;;;;;;;;;;4944184;28;20062;-68
2022/03/02 08:27:51;;;;;;;68.50;39.00;;;;;;;;;;4937696;28;20441;-68
2022/03/02 08:30:19;;;;;;;72.38;40.40;;;;;;;;;;4932924;28;20105;-68
2022/03/02 08:32:47;;;;;;;66.60;39.65;;;;;;;;;;4933773;28;20584;-69
2022/03/02 08:35:14;;;;;;;64.60;37.95;;;;;;;;;;4937837;28;20062;-69
2022/03/02 08:37:42;;;;;;;66.65;38.63;;;;;;;;;;4938318;28;20059;-69
2022/03/02 08:40:12;;;;;;;65.15;38.92;;;;;;;;;;4955039;28;20051;-69
2022/03/02 08:42:39;;;;;;;66.00;37.33;;;;;;;;;;4951351;28;20054;-69
2022/03/02 08:45:07;;;;;;;64.13;37.33;;;;;;;;;;4942043;28;20059;-69
2022/03/02 08:47:35;;;;;;;62.38;38.88;;;;;;;;;;4957556;28;20043;-69
2022/03/02 08:50:02;;;;;;;63.85;38.05;;;;;;;;;;4960013;28;20046;-69
2022/03/02 08:52:31;;;;;;;59.60;36.40;;;;;;;;;;4939766;28;20050;-69
2022/03/02 08:55:01;;;;;;;65.18;37.15;;;;;;;;;;4938556;28;20049;-69
2022/03/02 08:57:31;;;;;;;57.85;36.45;;;;;;;;;;4941831;28;20054;-69
2022/03/02 09:00:00;;;;;;;58.38;35.25;;;;;;;;;;4938617;28;20062;-69
2022/03/02 09:02:29;;;;;;;65.35;36.35;;;;;;;;;;4939216;28;20199;-69
2022/03/02 09:05:00;;;;;;;61.35;35.97;;;;;;;;;;4932922;28;20579;-69
2022/03/02 09:07:27;;;;;;;58.55;35.38;;;;;;;;;;4932623;28;20070;-69
2022/03/02 09:09:54;;;;;;;51.97;34.65;;;;;;;;;;4932980;28;20051;-69
2022/03/02 09:12:21;;;;;;;57.08;35.28;;;;;;;;;;4936851;28;20051;-69
2022/03/02 09:14:50;;;;;;;59.75;34.70;;;;;;;;;;4935746;28;20070;-69
2022/03/02 09:17:18;;;;;;;56.88;35.30;;;;;;;;;;4940672;28;20075;-69
2022/03/02 09:19:46;;;;;;;53.15;34.28;;;;;;;;;;4930954;28;20090;-69
2022/03/02 09:22:13;;;;;;;58.45;35.08;;;;;;;;;;4931166;28;20564;-69
2022/03/02 09:24:42;;;;;;;54.40;34.30;;;;;;;;;;4932331;28;20061;-69
2022/03/02 09:27:11;;;;;;;58.75;34.92;;;;;;;;;;4932581;28;20054;-69
2022/03/02 09:29:42;;;;;;;55.75;34.78;;;;;;;;;;4936788;28;20146;-69
2022/03/02 09:32:12;;;;;;;55.20;33.53;;;;;;;;;;4930794;28;20049;-69
2022/03/02 09:34:40;;;;;;;56.30;34.50;;;;;;;;;;4930538;28;20059;-69
2022/03/02 09:37:10;;;;;;;51.80;33.35;;;;;;;;;;4934331;28;20177;-69
2022/03/02 09:39:37;;;;;;;54.67;33.45;;;;;;;;;;4936934;28;20445;-69
2022/03/02 09:42:05;;;;;;;55.65;34.35;;;;;;;;;;4954288;28;20051;-69
2022/03/02 09:44:33;;;;;;;52.78;33.35;;;;;;;;;;4935720;28;20062;-69
2022/03/02 09:47:02;;;;;;;58.72;33.65;;;;;;;;;;4955324;28;20047;-69
2022/03/02 09:49:32;;;;;;;56.65;34.08;;;;;;;;;;4935114;28;20062;-69
2022/03/02 09:52:03;;;;;;;53.38;33.75;;;;;;;;;;4932937;28;20422;-69
2022/03/02 09:54:31;;;;;;;54.08;32.95;;;;;;;;;;4930831;28;20059;-69
2022/03/02 09:57:00;;;;;;;54.75;31.92;;;;;;;;;;4934968;28;20054;-69
2022/03/02 09:59:27;;;;;;;57.97;33.10;;;;;;;;;;4937488;28;20051;-69
2022/03/02 10:01:56;;;;;;;56.05;32.42;;;;;;;;;;4939894;28;20076;-69
2022/03/02 10:04:24;;;;;;;52.65;32.33;;;;;;;;;;4938803;28;20058;-69
2022/03/02 10:07:26;;;;;;;55.50;32.58;;;;;;;;;;4937260;28;20438;-69
2022/03/02 10:09:45;;;;;;;54.63;31.42;;;;;;;;;;4936187;28;20189;-69
2022/03/02 10:12:13;;;;;;;53.40;31.17;;;;;;;;;;4951322;28;20055;-69
2022/03/02 10:14:40;;;;;;;51.38;32.30;;;;;;;;;;4933519;28;21303;-69
2022/03/02 10:17:07;;;;;;;53.22;32.47;;;;;;;;;;4930714;28;20522;-69
2022/03/02 10:19:35;;;;;;;54.38;31.45;;;;;;;;;;4950998;28;20051;-69
2022/03/02 10:22:22;;;;;;;52.50;32.13;;;;;;;;;;4929772;28;20502;-69
2022/03/02 10:24:50;;;;;;;50.00;30.60;;;;;;;;;;4938328;28;20379;-69
2022/03/02 10:27:32;;;;;;;50.38;31.27;;;;;;;;;;4957440;28;20534;-69
2022/03/02 10:30:03;;;;;;;50.88;30.67;;;;;;;;;;4955065;28;20058;-69
2022/03/02 10:32:34;;;;;;;52.08;31.73;;;;;;;;;;4941840;28;20047;-69
2022/03/02 10:35:04;;;;;;;49.22;31.05;;;;;;;;;;4952162;28;20183;-69
2022/03/02 10:37:34;;;;;;;50.05;31.33;;;;;;;;;;4942587;28;20058;-69
2022/03/02 10:40:09;;;;;;;52.17;31.55;;;;;;;;;;4941966;28;20050;-69
2022/03/02 10:42:38;;;;;;;48.72;30.98;;;;;;;;;;4937030;28;20086;-69
2022/03/02 10:45:07;;;;;;;51.92;30.63;;;;;;;;;;4935685;28;20081;-69
2022/03/02 10:47:37;;;;;;;46.47;30.55;;;;;;;;;;4935778;28;20055;-69
2022/03/02 10:50:05;;;;;;;49.92;31.67;;;;;;;;;;4954619;28;20055;-69
2022/03/02 10:52:37;;;;;;;49.75;31.50;;;;;;;;;;4935023;28;20050;-69
2022/03/02 10:55:05;;;;;;;46.03;30.88;;;;;;;;;;4950769;28;20787;-69
2022/03/02 10:57:34;;;;;;;48.95;31.73;;;;;;;;;;4935858;28;20047;-69
2022/03/02 11:00:03;;;;;;;45.88;31.23;;;;;;;;;;4932971;28;20050;-69
2022/03/02 11:02:31;;;;;;;50.60;31.45;;;;;;;;;;4939867;28;20102;-69
2022/03/02 11:04:59;;;;;;;52.03;30.55;;;;;;;;;;4939140;28;20051;-69
2022/03/02 11:07:26;;;;;;;47.15;30.30;;;;;;;;;;4936211;28;20506;-69
2022/03/02 11:09:55;;;;;;;45.50;31.48;;;;;;;;;;4950788;28;20081;-69
2022/03/02 11:12:22;;;;;;;42.08;30.08;;;;;;;;;;4943225;28;20057;-69
2022/03/02 11:14:56;;;;;;;47.30;31.58;;;;;;;;;;4942133;28;20059;-69
2022/03/02 11:17:24;;;;;;;49.83;31.08;;;;;;;;;;4958813;28;20142;-69
2022/03/02 11:19:53;;;;;;;48.10;31.10;;;;;;;;;;4940149;28;20065;-69
2022/03/02 11:22:22;;;;;;;41.85;28.52;;;;;;;;;;4942294;28;20128;-69
2022/03/02 11:24:55;;;;;;;45.13;29.42;;;;;;;;;;4941590;28;20050;-70
2022/03/02 11:27:31;;;;;;;44.67;30.75;;;;;;;;;;4942761;28;20046;-70
2022/03/02 11:30:02;;;;;;;47.90;28.77;;;;;;;;;;4964636;28;20054;-70
2022/03/02 11:32:29;;;;;;;48.15;30.77;;;;;;;;;;4944730;28;20055;-70
2022/03/02 11:34:58;;;;;;;46.70;30.10;;;;;;;;;;4953989;28;20063;-70
2022/03/02 11:37:28;;;;;;;45.50;29.10;;;;;;;;;;4963045;28;20121;-70
2022/03/02 11:39:55;;;;;;;43.80;29.25;;;;;;;;;;4948029;28;20061;-70
2022/03/02 11:42:30;;;;;;;46.63;28.92;;;;;;;;;;4947902;28;20417;-70
2022/03/02 11:44:59;;;;;;;44.65;28.50;;;;;;;;;;4948136;28;20055;-70
2022/03/02 11:47:33;;;;;;;39.78;26.63;;;;;;;;;;4942720;28;20069;-70
2022/03/02 11:50:01;;;;;;;41.90;27.30;;;;;;;;;;4951493;28;20046;-70
2022/03/02 11:52:29;;;;;;;42.78;27.40;;;;;;;;;;4947476;28;20055;-70
2022/03/02 11:54:58;;;;;;;38.05;27.67;;;;;;;;;;4948100;28;20070;-70
2022/03/02 11:57:26;;;;;;;40.47;27.85;;;;;;;;;;4946256;28;20051;-70
2022/03/02 12:00:07;;;;;;;39.05;28.52;;;;;;;;;;4964356;28;20053;-70
2022/03/02 12:02:40;;;;;;;36.60;26.55;;;;;;;;;;4961498;28;20058;-70
2022/03/02 12:05:10;;;;;;;43.33;26.83;;;;;;;;;;4945533;28;20059;-70
2022/03/02 12:07:37;;;;;;;39.75;27.08;;;;;;;;;;4944022;28;20062;-70
2022/03/02 12:10:05;;;;;;;36.67;27.60;;;;;;;;;;4943789;28;20077;-70
2022/03/02 12:12:41;;;;;;;39.42;28.67;;;;;;;;;;4948434;28;20561;-70
2022/03/02 12:15:10;;;;;;;35.60;27.20;;;;;;;;;;4942749;28;20059;-70
2022/03/02 12:17:37;;;;;;;36.63;27.67;;;;;;;;;;4944118;28;20549;-70
2022/03/02 12:20:06;;;;;;;38.25;27.50;;;;;;;;;;4942149;28;20066;-70
2022/03/02 12:22:34;;;;;;;38.88;28.42;;;;;;;;;;4942362;28;20066;-70
2022/03/02 12:25:02;;;;;;;37.08;27.27;;;;;;;;;;4946447;28;20059;-70
2022/03/02 12:27:29;;;;;;;40.22;26.75;;;;;;;;;;4944452;28;20058;-70
2022/03/02 12:30:00;;;;;;;36.70;27.23;;;;;;;;;;4948517;28;20054;-70
2022/03/02 12:32:30;;;;;;;38.25;26.83;;;;;;;;;;4944097;28;20473;-70
2022/03/02 12:34:58;;;;;;;39.20;27.25;;;;;;;;;;4942247;28;20055;-70
2022/03/02 12:37:26;;;;;;;43.33;30.63;;;;;;;;;;4946842;28;20161;-70
2022/03/02 12:39:53;;;;;;;39.88;28.98;;;;;;;;;;4944443;28;20062;-70
2022/03/02 12:42:21;;;;;;;38.33;29.35;;;;;;;;;;4946432;28;20050;-70
2022/03/02 12:44:49;;;;;;;39.17;29.33;;;;;;;;;;4945332;28;20529;-70
2022/03/02 12:47:18;;;;;;;41.03;30.02;;;;;;;;;;4945213;28;20063;-70
2022/03/02 12:49:49;;;;;;;44.75;30.52;;;;;;;;;;4944538;28;20756;-71
2022/03/02 12:52:17;;;;;;;39.30;29.85;;;;;;;;;;4944209;28;20057;-71
2022/03/02 12:54:45;;;;;;;43.92;30.02;;;;;;;;;;4944330;28;20721;-71
2022/03/02 12:57:13;;;;;;;39.92;29.92;;;;;;;;;;4946988;28;20053;-71
2022/03/02 12:59:40;;;;;;;39.30;28.95;;;;;;;;;;4943542;28;20051;-71
2022/03/02 13:02:10;;;;;;;41.42;29.52;;;;;;;;;;4945026;28;20055;-71
2022/03/02 13:04:41;;;;;;;38.88;28.30;;;;;;;;;;4941756;28;20144;-71
2022/03/02 13:07:14;;;;;;;39.63;29.85;;;;;;;;;;4943495;28;20142;-71
2022/03/02 13:09:46;;;;;;;41.65;30.73;;;;;;;;;;4943323;28;20070;-71
2022/03/02 13:12:33;;;;;;;38.03;29.38;;;;;;;;;;4943308;28;20079;-71
2022/03/02 13:15:01;;;;;;;40.88;31.13;;;;;;;;;;4937926;28;20575;-71
2022/03/02 13:17:28;;;;;;;42.40;29.85;;;;;;;;;;4939697;28;20110;-71
2022/03/02 13:19:57;;;;;;;44.17;31.13;;;;;;;;;;4943720;28;20058;-71
2022/03/02 13:22:26;;;;;;;38.28;28.85;;;;;;;;;;4937524;28;20573;-71
2022/03/02 13:24:54;;;;;;;40.40;29.17;;;;;;;;;;4938727;28;20051;-71
2022/03/02 13:27:22;;;;;;;40.58;29.02;;;;;;;;;;4942487;28;20609;-71
2022/03/02 13:29:53;;;;;;;38.95;29.38;;;;;;;;;;4935029;28;20070;-71
2022/03/02 13:32:21;;;;;;;45.50;31.10;;;;;;;;;;4944246;28;20054;-71
2022/03/02 13:35:06;;;;;;;41.40;29.85;;;;;;;;;;4943773;28;20113;-71
2022/03/02 13:37:56;;;;;;;41.70;30.70;;;;;;;;;;4938250;28;20058;-71
2022/03/02 13:40:53;;;;;;;36.97;29.27;;;;;;;;;;4959437;28;20054;-71
2022/03/02 13:43:33;;;;;;;38.65;29.92;;;;;;;;;;4887369;29;20761;-71
2022/03/02 13:46:18;;;;;;;40.53;30.02;;;;;;;;;;4948221;28;20055;-71
2022/03/02 13:48:50;;;;;;;40.30;30.23;;;;;;;;;;4948162;28;20058;-71
2022/03/02 13:51:17;;;;;;;42.50;30.27;;;;;;;;;;4938742;28;20051;-71
2022/03/02 13:53:47;;;;;;;37.58;28.65;;;;;;;;;;4940039;28;20054;-72
2022/03/02 13:56:19;;;;;;;36.63;28.67;;;;;;;;;;4941568;28;20086;-71
2022/03/02 13:58:47;;;;;;;36.90;29.02;;;;;;;;;;4934820;28;20051;-71
2022/03/02 14:01:19;;;;;;;41.60;30.33;;;;;;;;;;4950700;28;20054;-71
2022/03/02 14:03:49;;;;;;;37.38;28.25;;;;;;;;;;4937943;28;20054;-71
2022/03/02 14:06:17;;;;;;;35.20;28.40;;;;;;;;;;4936638;28;20074;-71
2022/03/02 14:08:50;;;;;;;35.47;28.80;;;;;;;;;;4953137;28;20069;-71
2022/03/02 14:11:41;;;;;;;37.20;29.02;;;;;;;;;;4937038;28;20506;-71
2022/03/02 14:14:09;;;;;;;37.50;29.67;;;;;;;;;;4935786;28;20071;-71
2022/03/02 14:16:37;;;;;;;35.33;28.40;;;;;;;;;;4947190;28;20059;-71
2022/03/02 14:19:05;;;;;;;36.65;28.65;;;;;;;;;;4940694;28;20054;-71
2022/03/02 14:21:33;;;;;;;40.75;29.83;;;;;;;;;;4942412;28;20063;-71
2022/03/02 14:24:09;;;;;;;37.67;29.10;;;;;;;;;;4937381;28;20059;-71
2022/03/02 14:26:37;;;;;;;35.85;28.67;;;;;;;;;;4935170;28;20051;-71